Other Surface Observations
Issued by NWS Great Falls, MT

Home | Current Version | Previous Version | Text Only | Print | Product List | Glossary On
Versions: 1 2 3 4 5 6 7 8 9 10 11 12 13 14 15 16 17 18 19 20 21 22 23 24 25 26 27 28 29 30 31 32 33 34 35 36 37 38 39 40 41 42 43 44 45 46 47 48 49 50
000
SXUS55 KTFX 292244
OSOTFX
AREA AWOS OBSERVATIONS
NATIONAL WEATHER SERVICE GREAT FALLS MT
0444 PM MDT SAT APR 29 2017

METAR KPWD 292245Z AUTO 20009KT 10SM 15/M03 A3015 RMK PLENTYWOOD
METAR KPO1 292245Z AUTO 23012KT 10SM 14/00 A3015 RMK POPLAR
METAR KS71 292245Z AUTO 22007KT 10SM 13/01 A3008 RMK CHINOOK
METAR K79S 292245Z AUTO 10SM 14/01 A3009 RMK FORT BENTON
METAR K38S 292245Z AUTO 36005KT 10SM 12/M04 A3012 RMK DEER LODGE
METAR K3U3 292245Z AUTO 30008KT 10SM 14/M11 A3008 RMK ANACONDA
METAR K6S5 292245Z AUTO 30008KT 10SM 14/M07 A3011 RMK HAMILTON
METAR KS59 292245Z AUTO 16004KT 10SM 13/M02 A3010 RMK LIBBY
METAR K88M 292245Z AUTO 21012G16KT 10SM 13/M02 A3009 RMK EUREKA



USA.gov is the U.S. government's official web portal to all federal, state and local government web resources and services.